Pocatello Regional Airport
KPIH : now visible

Airfield :











YOU CAN JOIN US ON...

 
LOGIN :

Register | Disclaimer

   EN    FR    IT 

 









Legend :    VFR   Marginal VFR   IFR   Intensive IFR   Very Intensive IFR
Visi :
Ceiling :
>= 8 km
>= 3000ft
5 to 8 km
1000 to 3000 ft
1500m to 5 km
500 to 1000 ft
800 to 1500m
200 to 500 ft
< 800m
< 200 ft
Symbols :   Thunderstorms  Fog  Heavy snow  Heavy precipitations  Wind > 20 kt







- Airport Elevation : 4452 ft
- IATA code : PIH


KPIH - Pocatello Regional

CURRENT METAR :
  • 261953Z 33007KT 10SM FEW100 25/09 A2991 RMK AO2 SLP081 T02500089

EXPIRED METARs :
  • 261853Z VRB06KT 10SM CLR 24/08 A2992 RMK AO2 SLP085 T02390078
  • 261753Z 34005KT 10SM CLR 22/07 A2993 RMK AO2 SLP090 T02220067 10228 20100 58006

TAF KPIH
Valid from the 26 at 18:00 until the 27 at 18:00 UTC


261720Z 2618/2718 30007KT P6SM FEW120 SCT150
FM262000 21016G25KT P6SM VCTS SCT100 SCT150CB
FM270300 VRB06KT P6SM VCTS SCT090 BKN120CB
FM270800 19009KT P6SM SCT120 BKN200
KZLC FIR / North America



MET'MAP, your aeronautical weather chart ! - Copyright ORBIFLY December 2007 - Disclaimer

ORBIFLY MET'MAP TEAM :

Programming & Development : Alexandra Zaïnal
Concept & Development : Baudouin d'Aumeries
Co-Development & Prog : Marc-Olivier Méhu
Technical & hardware support : Manuel Goepfert

Contact : metmap@orbifly.com




SOURCES & CREDITS :

   NOAA       Earth
Advisory